GAF312 ETNW-ETNW
Flight info
| Callsign | GAF312 |
|---|---|
| Flight time | N/A |
| Altitude | 3000 |
| Route | NIE DCT |
| Aircraft | A20N/M-SDE2E3FGHIRWXY/LB1 |
Departure
| Time | 2026-04-11 18:54 |
|---|---|
| Airport | Wunstorf Air Base (ETNW) |
Arrival
| Time | N/A |
|---|---|
| Airport | Wunstorf Air Base (ETNW) |
| Time | Latitude | Longitude | Altitude | Speed | Heading |
|---|---|---|---|---|---|
| 2026-04-11 18:36 | 52.46054 | 9.42865 | 175 ft | 0 kts | 262° |
| 2026-04-11 18:50 | 52.46052 | 9.42850 | 175 ft | 4 kts | 262° |
| 2026-04-11 18:50 | 52.46039 | 9.42816 | 175 ft | 4 kts | 201° |
| 2026-04-11 18:50 | 52.45994 | 9.42809 | 175 ft | 9 kts | 175° |
| 2026-04-11 18:51 | 52.45942 | 9.42767 | 175 ft | 10 kts | 236° |
| 2026-04-11 18:51 | 52.45922 | 9.42634 | 175 ft | 15 kts | 260° |
| 2026-04-11 18:51 | 52.45905 | 9.42442 | 175 ft | 19 kts | 264° |
| 2026-04-11 18:51 | 52.45884 | 9.42198 | 175 ft | 24 kts | 261° |
| 2026-04-11 18:52 | 52.45857 | 9.41907 | 175 ft | 28 kts | 263° |
| 2026-04-11 18:52 | 52.45801 | 9.41595 | 177 ft | 29 kts | 242° |
| 2026-04-11 18:52 | 52.45745 | 9.41434 | 180 ft | 1 kts | 242° |
| 2026-04-11 18:52 | 52.45738 | 9.41411 | 181 ft | 4 kts | 242° |
| 2026-04-11 18:53 | 52.45719 | 9.41357 | 182 ft | 7 kts | 240° |
| 2026-04-11 18:53 | 52.45676 | 9.41293 | 182 ft | 11 kts | 205° |
| 2026-04-11 18:53 | 52.45624 | 9.41349 | 180 ft | 10 kts | 99° |
| 2026-04-11 18:53 | 52.45618 | 9.41469 | 182 ft | 12 kts | 88° |
| 2026-04-11 18:54 | 52.45673 | 9.42087 | 177 ft | 105 kts | 83° |
| 2026-04-11 18:54 | 52.45845 | 9.43602 | 554 ft | 151 kts | 83° |
| 2026-04-11 18:54 | 52.46022 | 9.45328 | 1596 ft | 158 kts | 88° |
| 2026-04-11 18:54 | 52.46514 | 9.47186 | 2415 ft | 198 kts | 65° |
| 2026-04-11 18:55 | 52.47408 | 9.49108 | 2792 ft | 232 kts | 56° |
| 2026-04-11 18:55 | 52.48543 | 9.51191 | 2900 ft | 244 kts | 53° |
| 2026-04-11 18:55 | 52.49692 | 9.53199 | 2946 ft | 245 kts | 52° |
| 2026-04-11 18:55 | 52.50992 | 9.55148 | 2953 ft | 275 kts | 36° |
| 2026-04-11 18:56 | 52.52847 | 9.56203 | 2971 ft | 288 kts | 7° |
| 2026-04-11 18:56 | 52.54823 | 9.55801 | 2971 ft | 289 kts | 337° |
| 2026-04-11 18:56 | 52.56473 | 9.54035 | 2945 ft | 276 kts | 308° |
| 2026-04-11 18:56 | 52.57397 | 9.51464 | 2948 ft | 251 kts | 284° |
| 2026-04-11 18:57 | 52.57991 | 9.48857 | 2943 ft | 236 kts | 282° |
| 2026-04-11 18:57 | 52.58198 | 9.46351 | 2952 ft | 211 kts | 259° |
| 2026-04-11 18:57 | 52.58124 | 9.44019 | 2944 ft | 201 kts | 257° |
| 2026-04-11 18:57 | 52.58030 | 9.41691 | 2943 ft | 204 kts | 258° |
| 2026-04-11 18:58 | 52.57949 | 9.39349 | 2945 ft | 204 kts | 258° |
| 2026-04-11 18:58 | 52.57883 | 9.36995 | 2943 ft | 205 kts | 259° |
| 2026-04-11 18:58 | 52.57829 | 9.34684 | 2942 ft | 203 kts | 259° |
| 2026-04-11 18:58 | 52.57777 | 9.32339 | 2938 ft | 204 kts | 259° |
| 2026-04-11 18:59 | 52.57727 | 9.30029 | 2941 ft | 203 kts | 259° |
| 2026-04-11 18:59 | 52.57678 | 9.27916 | 2939 ft | 205 kts | 259° |
| 2026-04-11 18:59 | 52.57623 | 9.25609 | 2937 ft | 204 kts | 259° |
| 2026-04-11 18:59 | 52.57569 | 9.23267 | 2938 ft | 204 kts | 259° |
| 2026-04-11 19:00 | 52.57516 | 9.20939 | 2930 ft | 203 kts | 259° |
| 2026-04-11 19:00 | 52.57463 | 9.18626 | 2933 ft | 203 kts | 259° |
| 2026-04-11 19:00 | 52.57416 | 9.16606 | 2934 ft | 203 kts | 259° |
| 2026-04-11 19:00 | 52.57372 | 9.14785 | 2932 ft | 203 kts | 259° |
| 2026-04-11 19:01 | 52.57317 | 9.12485 | 2932 ft | 203 kts | 259° |
| 2026-04-11 19:01 | 52.57203 | 9.10197 | 2918 ft | 196 kts | 243° |
| 2026-04-11 19:01 | 52.56396 | 9.08605 | 2924 ft | 177 kts | 197° |
| 2026-04-11 19:01 | 52.55234 | 9.08673 | 2928 ft | 174 kts | 152° |
| 2026-04-11 19:02 | 52.54359 | 9.10089 | 2928 ft | 180 kts | 131° |
| 2026-04-11 19:02 | 52.53662 | 9.11819 | 2927 ft | 182 kts | 128° |
| 2026-04-11 19:02 | 52.52862 | 9.13314 | 2931 ft | 174 kts | 154° |
| 2026-04-11 19:02 | 52.51715 | 9.13870 | 2927 ft | 173 kts | 173° |
| 2026-04-11 19:03 | 52.50518 | 9.13941 | 2921 ft | 173 kts | 181° |
| 2026-04-11 19:03 | 52.49312 | 9.13685 | 2921 ft | 174 kts | 191° |
| 2026-04-11 19:03 | 52.48142 | 9.13218 | 2919 ft | 167 kts | 187° |
| 2026-04-11 19:03 | 52.47055 | 9.12992 | 2914 ft | 152 kts | 181° |
| 2026-04-11 19:04 | 52.46105 | 9.13600 | 2958 ft | 161 kts | 139° |
| 2026-04-11 19:04 | 52.45490 | 9.15160 | 2884 ft | 163 kts | 124° |
| 2026-04-11 19:04 | 52.45034 | 9.16849 | 2771 ft | 157 kts | 121° |
| 2026-04-11 19:04 | 52.44655 | 9.18422 | 2720 ft | 142 kts | 120° |
| 2026-04-11 19:05 | 52.44421 | 9.19401 | 2665 ft | 135 kts | 120° |
| 2026-04-11 19:05 | 52.44023 | 9.21244 | 2553 ft | 125 kts | 112° |
| 2026-04-11 19:05 | 52.43964 | 9.22643 | 2465 ft | 125 kts | 99° |
| 2026-04-11 19:05 | 52.44045 | 9.24124 | 2315 ft | 130 kts | 93° |
| 2026-04-11 19:06 | 52.44190 | 9.25553 | 2148 ft | 126 kts | 94° |
| 2026-04-11 19:06 | 52.44313 | 9.26973 | 1979 ft | 123 kts | 93° |
| 2026-04-11 19:06 | 52.44437 | 9.28340 | 1816 ft | 121 kts | 95° |
| 2026-04-11 19:06 | 52.44559 | 9.29691 | 1657 ft | 119 kts | 94° |
| 2026-04-11 19:07 | 52.44679 | 9.31045 | 1480 ft | 121 kts | 93° |
| 2026-04-11 19:07 | 52.44803 | 9.32415 | 1323 ft | 123 kts | 91° |
| 2026-04-11 19:07 | 52.44926 | 9.33775 | 1155 ft | 121 kts | 91° |
| 2026-04-11 19:07 | 52.45049 | 9.35128 | 990 ft | 122 kts | 91° |
| 2026-04-11 19:08 | 52.45172 | 9.36521 | 821 ft | 127 kts | 88° |
| 2026-04-11 19:08 | 52.45300 | 9.37947 | 666 ft | 128 kts | 84° |
| 2026-04-11 19:08 | 52.45430 | 9.39369 | 484 ft | 121 kts | 86° |
| 2026-04-11 19:08 | 52.45553 | 9.40716 | 327 ft | 123 kts | 87° |
| 2026-04-11 19:09 | 52.45687 | 9.42284 | 917 ft | 151 kts | 85° |
| 2026-04-11 19:09 | 52.45930 | 9.44005 | 2110 ft | 157 kts | 84° |
| 2026-04-11 19:09 | 52.46274 | 9.45788 | 3205 ft | 170 kts | 83° |
| 2026-04-11 19:09 | 52.46844 | 9.47750 | 3208 ft | 231 kts | 46° |
| 2026-04-11 19:10 | 52.48423 | 9.49310 | 3527 ft | 291 kts | 34° |
| 2026-04-11 19:10 | 52.50352 | 9.51289 | 3172 ft | 359 kts | 38° |
| 2026-04-11 19:10 | 52.52269 | 9.54321 | 2951 ft | 405 kts | 50° |
| 2026-04-11 19:10 | 52.54302 | 9.57562 | 4249 ft | 402 kts | 45° |
| 2026-04-11 19:11 | 52.56326 | 9.60717 | 4459 ft | 419 kts | 40° |
| 2026-04-11 19:11 | 52.58922 | 9.63002 | 5123 ft | 425 kts | 17° |
| 2026-04-11 19:11 | 52.61771 | 9.63725 | 4969 ft | 405 kts | 358° |
| 2026-04-11 19:11 | 52.64457 | 9.62512 | 3451 ft | 405 kts | 330° |
| 2026-04-11 19:12 | 52.66550 | 9.59529 | 3040 ft | 381 kts | 311° |
| 2026-04-11 19:12 | 52.68113 | 9.56615 | 3006 ft | 355 kts | 305° |
| 2026-04-11 19:12 | 52.69668 | 9.53607 | 2957 ft | 335 kts | 309° |
| 2026-04-11 19:12 | 52.71154 | 9.50883 | 2955 ft | 312 kts | 304° |
| 2026-04-11 19:13 | 52.72097 | 9.47891 | 2957 ft | 280 kts | 278° |
| 2026-04-11 19:13 | 52.72215 | 9.44876 | 2950 ft | 250 kts | 256° |
| 2026-04-11 19:13 | 52.71780 | 9.42252 | 2950 ft | 226 kts | 239° |
| 2026-04-11 19:13 | 52.71007 | 9.40144 | 2949 ft | 205 kts | 224° |
| 2026-04-11 19:14 | 52.70006 | 9.38542 | 2951 ft | 199 kts | 210° |
| 2026-04-11 19:14 | 52.68830 | 9.37421 | 2956 ft | 194 kts | 198° |
| 2026-04-11 19:14 | 52.67551 | 9.36817 | 2950 ft | 190 kts | 186° |
| 2026-04-11 19:14 | 52.66225 | 9.36740 | 2952 ft | 189 kts | 174° |
| 2026-04-11 19:15 | 52.64917 | 9.36939 | 2950 ft | 189 kts | 174° |
| 2026-04-11 19:15 | 52.63605 | 9.37108 | 2954 ft | 189 kts | 177° |
| 2026-04-11 19:15 | 52.62320 | 9.36764 | 2956 ft | 192 kts | 199° |
| 2026-04-11 19:15 | 52.61183 | 9.35556 | 2950 ft | 197 kts | 212° |
| 2026-04-11 19:16 | 52.60101 | 9.34171 | 2955 ft | 196 kts | 212° |
| 2026-04-11 19:16 | 52.59018 | 9.32808 | 2942 ft | 195 kts | 212° |
| 2026-04-11 19:16 | 52.57940 | 9.31467 | 2943 ft | 195 kts | 211° |
| 2026-04-11 19:16 | 52.56852 | 9.30122 | 2940 ft | 195 kts | 211° |
| 2026-04-11 19:17 | 52.55761 | 9.28775 | 2944 ft | 196 kts | 211° |
| 2026-04-11 19:17 | 52.54662 | 9.27423 | 2938 ft | 197 kts | 211° |
| 2026-04-11 19:17 | 52.53583 | 9.26093 | 2939 ft | 196 kts | 211° |
| 2026-04-11 19:17 | 52.52617 | 9.24489 | 2938 ft | 203 kts | 232° |
| 2026-04-11 19:18 | 52.52187 | 9.22221 | 2943 ft | 215 kts | 254° |
| 2026-04-11 19:18 | 52.51985 | 9.19770 | 2929 ft | 215 kts | 254° |
| 2026-04-11 19:18 | 52.51784 | 9.17333 | 2929 ft | 216 kts | 254° |
| 2026-04-11 19:18 | 52.51573 | 9.14882 | 2928 ft | 216 kts | 254° |
| 2026-04-11 19:19 | 52.51358 | 9.12448 | 2928 ft | 215 kts | 253° |
| 2026-04-11 19:19 | 52.51140 | 9.10018 | 2925 ft | 216 kts | 253° |
| 2026-04-11 19:19 | 52.50922 | 9.07577 | 2924 ft | 215 kts | 253° |
| 2026-04-11 19:19 | 52.50706 | 9.05151 | 2923 ft | 215 kts | 253° |
| 2026-04-11 19:20 | 52.50492 | 9.02757 | 2923 ft | 205 kts | 253° |
| 2026-04-11 19:20 | 52.50035 | 9.00732 | 2824 ft | 182 kts | 222° |
| 2026-04-11 19:20 | 52.49036 | 8.99626 | 2710 ft | 176 kts | 193° |
| 2026-04-11 19:20 | 52.47852 | 8.99518 | 2575 ft | 168 kts | 167° |
| 2026-04-11 19:21 | 52.46819 | 9.00341 | 2446 ft | 169 kts | 142° |
| 2026-04-11 19:21 | 52.46129 | 9.01932 | 2332 ft | 175 kts | 120° |
| 2026-04-11 19:21 | 52.45642 | 9.03762 | 2184 ft | 174 kts | 120° |
| 2026-04-11 19:21 | 52.45153 | 9.05555 | 2068 ft | 172 kts | 120° |
| 2026-04-11 19:22 | 52.44659 | 9.07342 | 1947 ft | 171 kts | 120° |
| 2026-04-11 19:22 | 52.44165 | 9.09115 | 1917 ft | 171 kts | 120° |
| 2026-04-11 19:22 | 52.43671 | 9.10888 | 1923 ft | 171 kts | 120° |
| 2026-04-11 19:22 | 52.43284 | 9.12750 | 1927 ft | 175 kts | 106° |
| 2026-04-11 19:23 | 52.43246 | 9.14778 | 1930 ft | 182 kts | 94° |
| 2026-04-11 19:23 | 52.43404 | 9.16860 | 1920 ft | 185 kts | 90° |
| 2026-04-11 19:23 | 52.43596 | 9.18933 | 1932 ft | 184 kts | 90° |
| 2026-04-11 19:23 | 52.43783 | 9.21015 | 1933 ft | 185 kts | 90° |
| 2026-04-11 19:24 | 52.43969 | 9.23094 | 1932 ft | 185 kts | 90° |
| 2026-04-11 19:24 | 52.44150 | 9.25089 | 1934 ft | 183 kts | 90° |
| 2026-04-11 19:24 | 52.44335 | 9.27160 | 1923 ft | 184 kts | 91° |
| 2026-04-11 19:24 | 52.44522 | 9.29247 | 1739 ft | 187 kts | 90° |
| 2026-04-11 19:25 | 52.44714 | 9.31379 | 1456 ft | 191 kts | 89° |
| 2026-04-11 19:25 | 52.44906 | 9.33516 | 1190 ft | 192 kts | 88° |
| 2026-04-11 19:25 | 52.45100 | 9.35680 | 1000 ft | 190 kts | 87° |
| 2026-04-11 19:25 | 52.45301 | 9.37894 | 1171 ft | 197 kts | 88° |
| 2026-04-11 19:26 | 52.45501 | 9.40138 | 1140 ft | 200 kts | 88° |
| 2026-04-11 19:26 | 52.45705 | 9.42399 | 1136 ft | 200 kts | 88° |
| 2026-04-11 19:26 | 52.45915 | 9.44653 | 1136 ft | 201 kts | 83° |
| 2026-04-11 19:26 | 52.46432 | 9.46830 | 1137 ft | 205 kts | 71° |
| 2026-04-11 19:27 | 52.46670 | 9.49036 | 1159 ft | 197 kts | 99° |
| 2026-04-11 19:27 | 52.46514 | 9.51264 | 1145 ft | 196 kts | 102° |
| 2026-04-11 19:27 | 52.46345 | 9.53463 | 1150 ft | 192 kts | 102° |
| 2026-04-11 19:27 | 52.46173 | 9.55689 | 1166 ft | 198 kts | 102° |